sensor_id;sensor_type;location;lat;lon;timestamp;P1;durP1;ratioP1;P2;durP2;ratioP2
73452;SDS011;61687;56.232;43.854;2023-05-13T00:02:01;18.25;;;9.32;;
73452;SDS011;61687;56.232;43.854;2023-05-13T00:04:27;17.50;;;9.20;;
73452;SDS011;61687;56.232;43.854;2023-05-13T00:06:53;16.00;;;10.95;;
73452;SDS011;61687;56.232;43.854;2023-05-13T00:09:19;15.30;;;8.73;;
73452;SDS011;61687;56.232;43.854;2023-05-13T00:11:45;15.90;;;10.67;;
73452;SDS011;61687;56.232;43.854;2023-05-13T00:14:11;15.50;;;9.05;;
73452;SDS011;61687;56.232;43.854;2023-05-13T00:16:38;18.95;;;9.90;;
73452;SDS011;61687;56.232;43.854;2023-05-13T00:19:04;18.23;;;10.73;;
73452;SDS011;61687;56.232;43.854;2023-05-13T00:21:30;19.02;;;9.38;;
73452;SDS011;61687;56.232;43.854;2023-05-13T00:23:56;15.40;;;9.70;;
73452;SDS011;61687;56.232;43.854;2023-05-13T00:26:22;15.77;;;9.20;;
73452;SDS011;61687;56.232;43.854;2023-05-13T00:28:49;18.48;;;10.00;;
73452;SDS011;61687;56.232;43.854;2023-05-13T00:31:16;18.15;;;10.68;;
73452;SDS011;61687;56.232;43.854;2023-05-13T00:33:43;17.50;;;9.77;;
73452;SDS011;61687;56.232;43.854;2023-05-13T00:36:09;18.77;;;10.20;;
73452;SDS011;61687;56.232;43.854;2023-05-13T00:38:37;20.70;;;9.55;;
73452;SDS011;61687;56.232;43.854;2023-05-13T00:41:04;19.80;;;9.65;;
73452;SDS011;61687;56.232;43.854;2023-05-13T00:43:30;17.60;;;10.15;;
73452;SDS011;61687;56.232;43.854;2023-05-13T00:45:56;17.08;;;9.30;;
73452;SDS011;61687;56.232;43.854;2023-05-13T00:48:24;22.27;;;9.77;;
73452;SDS011;61687;56.232;43.854;2023-05-13T00:50:51;21.05;;;10.25;;
73452;SDS011;61687;56.232;43.854;2023-05-13T00:53:17;20.95;;;9.73;;
73452;SDS011;61687;56.232;43.854;2023-05-13T00:55:44;20.15;;;9.70;;
73452;SDS011;61687;56.232;43.854;2023-05-13T00:58:11;16.58;;;10.23;;
73452;SDS011;61687;56.232;43.854;2023-05-13T01:09:02;21.70;;;10.57;;
73452;SDS011;61687;56.232;43.854;2023-05-13T01:11:37;18.38;;;9.80;;
73452;SDS011;61687;56.232;43.854;2023-05-13T01:14:13;20.17;;;9.87;;
73452;SDS011;61687;56.232;43.854;2023-05-13T01:17:30;18.25;;;10.95;;
73452;SDS011;61687;56.232;43.854;2023-05-13T01:19:45;20.30;;;10.80;;
73452;SDS011;61687;56.232;43.854;2023-05-13T01:22:20;17.25;;;9.98;;
73452;SDS011;61687;56.232;43.854;2023-05-13T01:24:46;22.15;;;10.48;;
73452;SDS011;61687;56.232;43.854;2023-05-13T01:27:14;21.13;;;10.60;;
73452;SDS011;61687;56.232;43.854;2023-05-13T01:29:41;20.13;;;10.43;;
73452;SDS011;61687;56.232;43.854;2023-05-13T01:32:09;18.13;;;10.80;;
73452;SDS011;61687;56.232;43.854;2023-05-13T01:34:37;19.88;;;10.82;;
73452;SDS011;61687;56.232;43.854;2023-05-13T01:37:04;18.65;;;11.52;;
73452;SDS011;61687;56.232;43.854;2023-05-13T01:39:31;18.20;;;11.30;;
73452;SDS011;61687;56.232;43.854;2023-05-13T01:42:02;16.98;;;11.43;;
73452;SDS011;61687;56.232;43.854;2023-05-13T01:44:28;23.65;;;10.82;;
73452;SDS011;61687;56.232;43.854;2023-05-13T01:46:54;32.95;;;11.57;;
73452;SDS011;61687;56.232;43.854;2023-05-13T01:49:21;22.00;;;11.25;;
73452;SDS011;61687;56.232;43.854;2023-05-13T01:51:46;20.83;;;11.00;;
73452;SDS011;61687;56.232;43.854;2023-05-13T01:54:12;21.55;;;11.50;;
73452;SDS011;61687;56.232;43.854;2023-05-13T01:56:44;19.08;;;12.07;;
73452;SDS011;61687;56.232;43.854;2023-05-13T01:59:11;29.50;;;11.73;;
73452;SDS011;61687;56.232;43.854;2023-05-13T02:01:37;18.37;;;10.60;;
73452;SDS011;61687;56.232;43.854;2023-05-13T02:04:04;23.48;;;11.50;;
73452;SDS011;61687;56.232;43.854;2023-05-13T02:06:30;19.75;;;11.25;;
73452;SDS011;61687;56.232;43.854;2023-05-13T02:08:57;20.48;;;10.68;;
73452;SDS011;61687;56.232;43.854;2023-05-13T02:11:23;32.35;;;11.10;;
73452;SDS011;61687;56.232;43.854;2023-05-13T02:13:50;18.23;;;10.03;;
73452;SDS011;61687;56.232;43.854;2023-05-13T02:16:16;18.95;;;11.02;;
73452;SDS011;61687;56.232;43.854;2023-05-13T02:18:43;24.70;;;11.30;;
73452;SDS011;61687;56.232;43.854;2023-05-13T02:21:09;21.08;;;10.95;;
73452;SDS011;61687;56.232;43.854;2023-05-13T02:23:35;22.52;;;10.93;;
73452;SDS011;61687;56.232;43.854;2023-05-13T02:26:01;17.33;;;10.23;;
73452;SDS011;61687;56.232;43.854;2023-05-13T02:28:28;20.13;;;11.02;;
73452;SDS011;61687;56.232;43.854;2023-05-13T02:30:54;19.92;;;11.30;;
73452;SDS011;61687;56.232;43.854;2023-05-13T02:33:20;21.55;;;10.73;;
73452;SDS011;61687;56.232;43.854;2023-05-13T02:35:46;18.40;;;9.77;;
73452;SDS011;61687;56.232;43.854;2023-05-13T02:38:11;23.20;;;10.70;;
73452;SDS011;61687;56.232;43.854;2023-05-13T02:40:38;30.95;;;10.35;;
73452;SDS011;61687;56.232;43.854;2023-05-13T02:43:04;23.23;;;9.68;;
73452;SDS011;61687;56.232;43.854;2023-05-13T02:45:50;20.17;;;10.85;;
73452;SDS011;61687;56.232;43.854;2023-05-13T02:48:16;19.77;;;9.80;;
73452;SDS011;61687;56.232;43.854;2023-05-13T02:50:43;17.50;;;9.85;;
73452;SDS011;61687;56.232;43.854;2023-05-13T02:53:10;17.58;;;9.70;;
73452;SDS011;61687;56.232;43.854;2023-05-13T02:55:40;16.90;;;10.00;;
73452;SDS011;61687;56.232;43.854;2023-05-13T02:58:07;15.35;;;9.57;;
73452;SDS011;61687;56.232;43.854;2023-05-13T03:00:33;14.93;;;9.17;;
73452;SDS011;61687;56.232;43.854;2023-05-13T03:03:00;15.77;;;9.20;;
73452;SDS011;61687;56.232;43.854;2023-05-13T03:05:26;19.30;;;8.52;;
73452;SDS011;61687;56.232;43.854;2023-05-13T03:07:52;16.88;;;8.57;;
73452;SDS011;61687;56.232;43.854;2023-05-13T03:10:18;17.13;;;8.52;;
73452;SDS011;61687;56.232;43.854;2023-05-13T03:12:46;13.90;;;8.83;;
73452;SDS011;61687;56.232;43.854;2023-05-13T03:15:13;15.85;;;9.00;;
73452;SDS011;61687;56.232;43.854;2023-05-13T03:17:42;15.90;;;8.13;;
73452;SDS011;61687;56.232;43.854;2023-05-13T03:20:10;17.60;;;8.75;;
73452;SDS011;61687;56.232;43.854;2023-05-13T03:22:36;18.30;;;9.18;;
73452;SDS011;61687;56.232;43.854;2023-05-13T03:25:06;21.17;;;10.47;;
73452;SDS011;61687;56.232;43.854;2023-05-13T03:27:52;16.45;;;10.00;;
73452;SDS011;61687;56.232;43.854;2023-05-13T03:30:21;15.98;;;10.30;;
73452;SDS011;61687;56.232;43.854;2023-05-13T03:32:55;17.60;;;9.93;;
73452;SDS011;61687;56.232;43.854;2023-05-13T03:35:22;15.68;;;9.55;;
73452;SDS011;61687;56.232;43.854;2023-05-13T03:37:48;16.87;;;9.73;;
73452;SDS011;61687;56.232;43.854;2023-05-13T03:40:16;19.98;;;10.50;;
73452;SDS011;61687;56.232;43.854;2023-05-13T03:42:42;18.50;;;10.63;;
73452;SDS011;61687;56.232;43.854;2023-05-13T03:45:08;18.02;;;9.70;;
73452;SDS011;61687;56.232;43.854;2023-05-13T03:47:36;19.40;;;10.30;;
73452;SDS011;61687;56.232;43.854;2023-05-13T03:50:06;16.37;;;9.90;;
73452;SDS011;61687;56.232;43.854;2023-05-13T03:52:39;17.42;;;10.25;;
73452;SDS011;61687;56.232;43.854;2023-05-13T03:55:05;18.40;;;9.88;;
73452;SDS011;61687;56.232;43.854;2023-05-13T03:57:33;14.55;;;9.18;;
73452;SDS011;61687;56.232;43.854;2023-05-13T03:59:59;25.90;;;10.48;;
73452;SDS011;61687;56.232;43.854;2023-05-13T04:02:25;14.17;;;8.80;;
73452;SDS011;61687;56.232;43.854;2023-05-13T04:04:51;14.30;;;9.18;;
73452;SDS011;61687;56.232;43.854;2023-05-13T04:07:18;14.30;;;9.30;;
73452;SDS011;61687;56.232;43.854;2023-05-13T04:09:44;19.45;;;9.23;;
73452;SDS011;61687;56.232;43.854;2023-05-13T04:12:10;21.37;;;9.20;;
73452;SDS011;61687;56.232;43.854;2023-05-13T04:14:38;18.67;;;8.98;;
73452;SDS011;61687;56.232;43.854;2023-05-13T04:17:04;17.33;;;9.45;;
73452;SDS011;61687;56.232;43.854;2023-05-13T04:19:30;16.02;;;9.00;;
73452;SDS011;61687;56.232;43.854;2023-05-13T04:21:57;17.08;;;8.32;;
73452;SDS011;61687;56.232;43.854;2023-05-13T04:24:23;14.90;;;8.43;;
73452;SDS011;61687;56.232;43.854;2023-05-13T04:26:49;17.77;;;8.40;;
73452;SDS011;61687;56.232;43.854;2023-05-13T04:29:17;15.65;;;7.95;;
73452;SDS011;61687;56.232;43.854;2023-05-13T04:31:43;19.67;;;8.43;;
73452;SDS011;61687;56.232;43.854;2023-05-13T04:34:10;15.32;;;7.72;;
73452;SDS011;61687;56.232;43.854;2023-05-13T04:36:36;14.33;;;7.47;;
73452;SDS011;61687;56.232;43.854;2023-05-13T04:39:03;12.57;;;7.72;;
73452;SDS011;61687;56.232;43.854;2023-05-13T04:41:28;16.27;;;7.70;;
73452;SDS011;61687;56.232;43.854;2023-05-13T04:43:54;11.60;;;7.30;;
73452;SDS011;61687;56.232;43.854;2023-05-13T04:46:20;15.17;;;7.40;;
73452;SDS011;61687;56.232;43.854;2023-05-13T04:48:49;17.88;;;7.75;;
73452;SDS011;61687;56.232;43.854;2023-05-13T04:51:15;17.42;;;7.53;;
73452;SDS011;61687;56.232;43.854;2023-05-13T04:53:41;17.88;;;8.45;;
73452;SDS011;61687;56.232;43.854;2023-05-13T04:56:07;13.97;;;7.53;;
73452;SDS011;61687;56.232;43.854;2023-05-13T04:58:33;14.30;;;7.32;;
73452;SDS011;61687;56.232;43.854;2023-05-13T05:01:00;14.90;;;7.50;;
73452;SDS011;61687;56.232;43.854;2023-05-13T05:03:27;17.75;;;7.47;;
73452;SDS011;61687;56.232;43.854;2023-05-13T05:05:53;16.83;;;8.35;;
73452;SDS011;61687;56.232;43.854;2023-05-13T05:08:20;15.20;;;8.80;;
73452;SDS011;61687;56.232;43.854;2023-05-13T05:10:48;17.00;;;9.52;;
73452;SDS011;61687;56.232;43.854;2023-05-13T05:13:14;17.45;;;10.02;;
73452;SDS011;61687;56.232;43.854;2023-05-13T05:15:42;14.15;;;8.65;;
73452;SDS011;61687;56.232;43.854;2023-05-13T05:18:08;17.33;;;9.00;;
73452;SDS011;61687;56.232;43.854;2023-05-13T05:20:36;17.77;;;8.67;;
73452;SDS011;61687;56.232;43.854;2023-05-13T05:23:04;22.73;;;9.00;;
73452;SDS011;61687;56.232;43.854;2023-05-13T05:25:32;17.58;;;8.93;;
73452;SDS011;61687;56.232;43.854;2023-05-13T05:27:58;16.90;;;9.18;;
73452;SDS011;61687;56.232;43.854;2023-05-13T05:30:24;21.30;;;9.00;;
73452;SDS011;61687;56.232;43.854;2023-05-13T05:32:57;22.80;;;8.77;;
73452;SDS011;61687;56.232;43.854;2023-05-13T05:35:23;16.75;;;8.27;;
73452;SDS011;61687;56.232;43.854;2023-05-13T05:37:50;15.95;;;8.93;;
73452;SDS011;61687;56.232;43.854;2023-05-13T05:40:17;15.13;;;9.05;;
73452;SDS011;61687;56.232;43.854;2023-05-13T05:42:45;22.25;;;9.50;;
73452;SDS011;61687;56.232;43.854;2023-05-13T05:45:11;16.70;;;9.40;;
73452;SDS011;61687;56.232;43.854;2023-05-13T05:47:37;22.27;;;8.90;;
73452;SDS011;61687;56.232;43.854;2023-05-13T05:50:04;15.07;;;9.68;;
73452;SDS011;61687;56.232;43.854;2023-05-13T05:52:31;17.90;;;8.38;;
73452;SDS011;61687;56.232;43.854;2023-05-13T05:54:57;17.90;;;9.90;;
73452;SDS011;61687;56.232;43.854;2023-05-13T05:57:23;16.17;;;8.50;;
73452;SDS011;61687;56.232;43.854;2023-05-13T05:59:49;16.45;;;8.90;;
73452;SDS011;61687;56.232;43.854;2023-05-13T06:02:16;18.55;;;8.48;;
73452;SDS011;61687;56.232;43.854;2023-05-13T06:04:42;24.35;;;9.15;;
73452;SDS011;61687;56.232;43.854;2023-05-13T06:07:07;19.20;;;9.37;;
73452;SDS011;61687;56.232;43.854;2023-05-13T06:09:33;17.40;;;9.05;;
73452;SDS011;61687;56.232;43.854;2023-05-13T06:12:00;17.08;;;8.38;;
73452;SDS011;61687;56.232;43.854;2023-05-13T06:14:26;20.95;;;9.25;;
73452;SDS011;61687;56.232;43.854;2023-05-13T06:16:52;18.67;;;8.43;;
73452;SDS011;61687;56.232;43.854;2023-05-13T06:19:18;17.75;;;8.88;;
73452;SDS011;61687;56.232;43.854;2023-05-13T06:21:44;20.90;;;8.48;;
73452;SDS011;61687;56.232;43.854;2023-05-13T06:24:10;12.82;;;8.25;;
73452;SDS011;61687;56.232;43.854;2023-05-13T06:26:39;20.73;;;8.73;;
73452;SDS011;61687;56.232;43.854;2023-05-13T06:29:05;18.03;;;8.13;;
73452;SDS011;61687;56.232;43.854;2023-05-13T06:31:33;23.67;;;10.10;;
73452;SDS011;61687;56.232;43.854;2023-05-13T06:34:00;20.30;;;8.68;;
73452;SDS011;61687;56.232;43.854;2023-05-13T06:36:26;19.48;;;9.63;;
73452;SDS011;61687;56.232;43.854;2023-05-13T06:38:52;16.93;;;9.40;;
73452;SDS011;61687;56.232;43.854;2023-05-13T06:41:20;18.75;;;8.85;;
73452;SDS011;61687;56.232;43.854;2023-05-13T06:43:48;22.40;;;7.65;;
73452;SDS011;61687;56.232;43.854;2023-05-13T06:46:27;24.55;;;7.60;;
73452;SDS011;61687;56.232;43.854;2023-05-13T06:48:53;19.37;;;8.43;;
73452;SDS011;61687;56.232;43.854;2023-05-13T06:51:21;18.15;;;7.07;;
73452;SDS011;61687;56.232;43.854;2023-05-13T06:53:47;18.38;;;8.13;;
73452;SDS011;61687;56.232;43.854;2023-05-13T06:56:13;17.30;;;8.38;;
73452;SDS011;61687;56.232;43.854;2023-05-13T06:58:39;17.40;;;6.70;;
73452;SDS011;61687;56.232;43.854;2023-05-13T07:01:05;16.90;;;6.90;;
73452;SDS011;61687;56.232;43.854;2023-05-13T07:03:31;14.65;;;7.72;;
73452;SDS011;61687;56.232;43.854;2023-05-13T07:05:57;12.75;;;6.57;;
73452;SDS011;61687;56.232;43.854;2023-05-13T07:08:23;23.17;;;6.77;;
73452;SDS011;61687;56.232;43.854;2023-05-13T07:10:50;19.38;;;7.25;;
73452;SDS011;61687;56.232;43.854;2023-05-13T07:13:16;12.40;;;5.97;;
73452;SDS011;61687;56.232;43.854;2023-05-13T07:15:43;9.02;;;6.03;;
73452;SDS011;61687;56.232;43.854;2023-05-13T07:18:11;14.88;;;7.15;;
73452;SDS011;61687;56.232;43.854;2023-05-13T07:20:38;8.83;;;5.67;;
73452;SDS011;61687;56.232;43.854;2023-05-13T07:23:04;11.05;;;4.90;;
73452;SDS011;61687;56.232;43.854;2023-05-13T07:25:30;16.92;;;5.70;;
73452;SDS011;61687;56.232;43.854;2023-05-13T07:27:56;10.50;;;5.55;;
73452;SDS011;61687;56.232;43.854;2023-05-13T07:30:22;13.55;;;5.75;;
73452;SDS011;61687;56.232;43.854;2023-05-13T07:32:48;14.50;;;6.00;;
73452;SDS011;61687;56.232;43.854;2023-05-13T07:35:14;7.10;;;5.45;;
73452;SDS011;61687;56.232;43.854;2023-05-13T07:37:42;21.88;;;4.93;;
73452;SDS011;61687;56.232;43.854;2023-05-13T07:40:09;10.65;;;5.13;;
73452;SDS011;61687;56.232;43.854;2023-05-13T07:42:36;12.25;;;5.22;;
73452;SDS011;61687;56.232;43.854;2023-05-13T07:45:02;10.73;;;4.83;;
73452;SDS011;61687;56.232;43.854;2023-05-13T07:47:31;8.88;;;4.55;;
73452;SDS011;61687;56.232;43.854;2023-05-13T07:49:58;6.80;;;4.72;;
73452;SDS011;61687;56.232;43.854;2023-05-13T07:52:24;11.30;;;4.72;;
73452;SDS011;61687;56.232;43.854;2023-05-13T07:54:50;10.13;;;4.18;;
73452;SDS011;61687;56.232;43.854;2023-05-13T07:57:16;7.77;;;4.97;;
73452;SDS011;61687;56.232;43.854;2023-05-13T07:59:42;7.82;;;4.47;;
73452;SDS011;61687;56.232;43.854;2023-05-13T08:02:09;9.90;;;4.93;;
73452;SDS011;61687;56.232;43.854;2023-05-13T08:04:35;8.18;;;4.65;;
73452;SDS011;61687;56.232;43.854;2023-05-13T08:07:02;9.10;;;4.43;;
73452;SDS011;61687;56.232;43.854;2023-05-13T08:09:28;6.70;;;4.40;;
73452;SDS011;61687;56.232;43.854;2023-05-13T08:11:54;8.77;;;4.85;;
73452;SDS011;61687;56.232;43.854;2023-05-13T08:14:20;10.73;;;5.03;;
73452;SDS011;61687;56.232;43.854;2023-05-13T08:16:46;11.53;;;4.30;;
73452;SDS011;61687;56.232;43.854;2023-05-13T08:19:12;6.25;;;3.83;;
73452;SDS011;61687;56.232;43.854;2023-05-13T08:21:39;10.90;;;4.22;;
73452;SDS011;61687;56.232;43.854;2023-05-13T08:24:05;10.75;;;3.67;;
73452;SDS011;61687;56.232;43.854;2023-05-13T08:26:31;11.48;;;3.95;;
73452;SDS011;61687;56.232;43.854;2023-05-13T08:28:58;7.07;;;4.33;;
73452;SDS011;61687;56.232;43.854;2023-05-13T08:31:24;12.27;;;3.75;;
73452;SDS011;61687;56.232;43.854;2023-05-13T08:33:51;7.05;;;4.57;;
73452;SDS011;61687;56.232;43.854;2023-05-13T08:36:18;7.28;;;3.78;;
73452;SDS011;61687;56.232;43.854;2023-05-13T08:38:46;8.40;;;4.30;;
73452;SDS011;61687;56.232;43.854;2023-05-13T08:41:12;8.90;;;3.63;;
73452;SDS011;61687;56.232;43.854;2023-05-13T08:43:39;9.38;;;3.83;;
73452;SDS011;61687;56.232;43.854;2023-05-13T08:46:10;8.68;;;3.75;;
73452;SDS011;61687;56.232;43.854;2023-05-13T08:48:37;8.48;;;4.70;;
73452;SDS011;61687;56.232;43.854;2023-05-13T08:51:05;10.45;;;4.40;;
73452;SDS011;61687;56.232;43.854;2023-05-13T08:53:31;11.10;;;4.37;;
73452;SDS011;61687;56.232;43.854;2023-05-13T08:55:59;6.18;;;4.15;;
73452;SDS011;61687;56.232;43.854;2023-05-13T08:58:25;12.45;;;4.00;;
73452;SDS011;61687;56.232;43.854;2023-05-13T09:00:52;9.43;;;3.92;;
73452;SDS011;61687;56.232;43.854;2023-05-13T09:03:19;8.43;;;4.40;;
73452;SDS011;61687;56.232;43.854;2023-05-13T09:05:46;7.77;;;3.43;;
73452;SDS011;61687;56.232;43.854;2023-05-13T09:08:12;7.07;;;3.95;;
73452;SDS011;61687;56.232;43.854;2023-05-13T09:10:38;6.78;;;3.85;;
73452;SDS011;61687;56.232;43.854;2023-05-13T09:13:04;5.57;;;3.92;;
73452;SDS011;61687;56.232;43.854;2023-05-13T09:15:30;10.87;;;3.97;;
73452;SDS011;61687;56.232;43.854;2023-05-13T09:18:03;6.60;;;3.40;;
73452;SDS011;61687;56.232;43.854;2023-05-13T09:20:30;8.80;;;3.90;;
73452;SDS011;61687;56.232;43.854;2023-05-13T09:23:00;8.90;;;4.05;;
73452;SDS011;61687;56.232;43.854;2023-05-13T09:25:27;5.40;;;3.72;;
73452;SDS011;61687;56.232;43.854;2023-05-13T09:27:55;6.70;;;3.30;;
73452;SDS011;61687;56.232;43.854;2023-05-13T09:30:23;7.43;;;3.50;;
73452;SDS011;61687;56.232;43.854;2023-05-13T09:33:06;8.18;;;3.95;;
73452;SDS011;61687;56.232;43.854;2023-05-13T09:35:40;7.20;;;4.20;;
73452;SDS011;61687;56.232;43.854;2023-05-13T09:38:13;7.45;;;3.92;;
73452;SDS011;61687;56.232;43.854;2023-05-13T09:40:49;6.70;;;3.77;;
73452;SDS011;61687;56.232;43.854;2023-05-13T09:43:23;5.57;;;3.42;;
73452;SDS011;61687;56.232;43.854;2023-05-13T09:45:53;7.15;;;3.53;;
73452;SDS011;61687;56.232;43.854;2023-05-13T09:48:21;8.45;;;4.00;;
73452;SDS011;61687;56.232;43.854;2023-05-13T09:50:49;7.85;;;4.00;;
73452;SDS011;61687;56.232;43.854;2023-05-13T09:53:16;7.03;;;4.13;;
73452;SDS011;61687;56.232;43.854;2023-05-13T09:55:44;10.65;;;3.42;;
73452;SDS011;61687;56.232;43.854;2023-05-13T09:58:11;8.18;;;3.63;;
73452;SDS011;61687;56.232;43.854;2023-05-13T10:00:38;8.10;;;3.83;;
73452;SDS011;61687;56.232;43.854;2023-05-13T10:03:06;8.73;;;3.88;;
73452;SDS011;61687;56.232;43.854;2023-05-13T10:05:32;8.67;;;3.27;;
73452;SDS011;61687;56.232;43.854;2023-05-13T10:07:59;6.38;;;3.53;;
73452;SDS011;61687;56.232;43.854;2023-05-13T10:10:27;5.72;;;3.72;;
73452;SDS011;61687;56.232;43.854;2023-05-13T10:13:02;7.70;;;3.53;;
73452;SDS011;61687;56.232;43.854;2023-05-13T10:15:49;9.13;;;3.58;;
73452;SDS011;61687;56.232;43.854;2023-05-13T10:18:16;8.73;;;2.80;;
73452;SDS011;61687;56.232;43.854;2023-05-13T10:20:43;5.97;;;3.03;;
73452;SDS011;61687;56.232;43.854;2023-05-13T10:23:10;7.47;;;3.65;;
73452;SDS011;61687;56.232;43.854;2023-05-13T10:25:36;6.32;;;2.63;;
73452;SDS011;61687;56.232;43.854;2023-05-13T10:28:03;10.60;;;3.15;;
73452;SDS011;61687;56.232;43.854;2023-05-13T10:30:29;13.93;;;3.23;;
73452;SDS011;61687;56.232;43.854;2023-05-13T10:32:57;7.18;;;3.05;;
73452;SDS011;61687;56.232;43.854;2023-05-13T10:35:25;6.85;;;3.15;;
73452;SDS011;61687;56.232;43.854;2023-05-13T10:37:58;7.85;;;2.72;;
73452;SDS011;61687;56.232;43.854;2023-05-13T10:43:26;6.73;;;2.80;;
73452;SDS011;61687;56.232;43.854;2023-05-13T10:45:58;6.70;;;2.95;;
73452;SDS011;61687;56.232;43.854;2023-05-13T10:48:32;8.75;;;2.92;;
73452;SDS011;61687;56.232;43.854;2023-05-13T10:51:14;7.53;;;3.30;;
73452;SDS011;61687;56.232;43.854;2023-05-13T10:53:47;26.15;;;3.50;;
73452;SDS011;61687;56.232;43.854;2023-05-13T10:56:15;8.07;;;3.13;;
73452;SDS011;61687;56.232;43.854;2023-05-13T10:59:01;7.35;;;3.08;;
73452;SDS011;61687;56.232;43.854;2023-05-13T11:04:15;7.68;;;3.20;;
73452;SDS011;61687;56.232;43.854;2023-05-13T11:06:43;7.32;;;3.78;;
73452;SDS011;61687;56.232;43.854;2023-05-13T11:11:51;7.22;;;3.85;;
73452;SDS011;61687;56.232;43.854;2023-05-13T11:19:22;5.95;;;3.88;;
73452;SDS011;61687;56.232;43.854;2023-05-13T11:21:52;42.73;;;4.63;;
73452;SDS011;61687;56.232;43.854;2023-05-13T11:24:21;14.40;;;3.13;;
73452;SDS011;61687;56.232;43.854;2023-05-13T11:29:35;9.55;;;3.40;;
73452;SDS011;61687;56.232;43.854;2023-05-13T11:32:03;6.20;;;3.53;;
73452;SDS011;61687;56.232;43.854;2023-05-13T11:34:32;5.33;;;3.73;;
73452;SDS011;61687;56.232;43.854;2023-05-13T11:39:28;7.57;;;3.92;;
73452;SDS011;61687;56.232;43.854;2023-05-13T11:41:54;8.07;;;3.60;;
73452;SDS011;61687;56.232;43.854;2023-05-13T11:44:26;10.80;;;3.95;;
73452;SDS011;61687;56.232;43.854;2023-05-13T11:46:54;8.23;;;3.60;;
73452;SDS011;61687;56.232;43.854;2023-05-13T11:49:31;8.20;;;3.50;;
73452;SDS011;61687;56.232;43.854;2023-05-13T11:51:58;9.38;;;3.55;;
73452;SDS011;61687;56.232;43.854;2023-05-13T11:54:25;10.75;;;3.45;;
73452;SDS011;61687;56.232;43.854;2023-05-13T11:56:52;9.30;;;3.40;;
73452;SDS011;61687;56.232;43.854;2023-05-13T11:59:18;9.47;;;3.40;;
73452;SDS011;61687;56.232;43.854;2023-05-13T12:01:44;6.22;;;3.53;;
73452;SDS011;61687;56.232;43.854;2023-05-13T12:04:11;11.95;;;4.53;;
73452;SDS011;61687;56.232;43.854;2023-05-13T12:06:43;11.32;;;3.65;;
73452;SDS011;61687;56.232;43.854;2023-05-13T12:09:10;10.43;;;3.70;;
73452;SDS011;61687;56.232;43.854;2023-05-13T12:11:37;10.50;;;4.57;;
73452;SDS011;61687;56.232;43.854;2023-05-13T12:14:05;8.95;;;4.05;;
73452;SDS011;61687;56.232;43.854;2023-05-13T12:16:31;12.85;;;4.25;;
73452;SDS011;61687;56.232;43.854;2023-05-13T12:19:03;13.30;;;4.60;;
73452;SDS011;61687;56.232;43.854;2023-05-13T12:21:31;12.25;;;4.60;;
73452;SDS011;61687;56.232;43.854;2023-05-13T12:23:57;10.03;;;4.00;;
73452;SDS011;61687;56.232;43.854;2023-05-13T12:26:23;11.35;;;4.20;;
73452;SDS011;61687;56.232;43.854;2023-05-13T12:28:57;12.05;;;4.40;;
73452;SDS011;61687;56.232;43.854;2023-05-13T12:31:23;7.85;;;3.85;;
73452;SDS011;61687;56.232;43.854;2023-05-13T12:33:50;12.90;;;5.10;;
73452;SDS011;61687;56.232;43.854;2023-05-13T12:36:22;8.53;;;4.43;;
73452;SDS011;61687;56.232;43.854;2023-05-13T12:39:01;8.00;;;4.55;;
73452;SDS011;61687;56.232;43.854;2023-05-13T12:41:34;13.57;;;4.70;;
73452;SDS011;61687;56.232;43.854;2023-05-13T12:44:02;9.40;;;4.57;;
73452;SDS011;61687;56.232;43.854;2023-05-13T12:46:31;11.25;;;4.35;;
73452;SDS011;61687;56.232;43.854;2023-05-13T12:48:59;9.03;;;4.90;;
73452;SDS011;61687;56.232;43.854;2023-05-13T12:51:27;10.18;;;5.38;;
73452;SDS011;61687;56.232;43.854;2023-05-13T12:53:54;11.23;;;4.80;;
73452;SDS011;61687;56.232;43.854;2023-05-13T12:56:21;9.10;;;4.90;;
73452;SDS011;61687;56.232;43.854;2023-05-13T12:58:51;10.13;;;4.38;;
73452;SDS011;61687;56.232;43.854;2023-05-13T13:01:18;43.93;;;5.23;;
73452;SDS011;61687;56.232;43.854;2023-05-13T13:03:45;14.43;;;4.50;;
73452;SDS011;61687;56.232;43.854;2023-05-13T13:06:11;12.25;;;4.53;;
73452;SDS011;61687;56.232;43.854;2023-05-13T13:08:38;9.68;;;4.15;;
73452;SDS011;61687;56.232;43.854;2023-05-13T13:11:04;12.95;;;4.70;;
73452;SDS011;61687;56.232;43.854;2023-05-13T13:13:31;11.63;;;4.77;;
73452;SDS011;61687;56.232;43.854;2023-05-13T13:15:57;14.90;;;4.90;;
73452;SDS011;61687;56.232;43.854;2023-05-13T13:18:24;14.38;;;5.32;;
73452;SDS011;61687;56.232;43.854;2023-05-13T13:20:50;9.77;;;5.28;;
73452;SDS011;61687;56.232;43.854;2023-05-13T13:23:20;15.20;;;5.20;;
73452;SDS011;61687;56.232;43.854;2023-05-13T13:25:46;8.93;;;5.30;;
73452;SDS011;61687;56.232;43.854;2023-05-13T13:28:12;13.00;;;5.45;;
73452;SDS011;61687;56.232;43.854;2023-05-13T13:30:38;15.20;;;5.50;;
73452;SDS011;61687;56.232;43.854;2023-05-13T13:33:09;18.23;;;6.50;;
73452;SDS011;61687;56.232;43.854;2023-05-13T13:35:35;14.10;;;5.80;;
73452;SDS011;61687;56.232;43.854;2023-05-13T13:38:01;17.60;;;5.85;;
73452;SDS011;61687;56.232;43.854;2023-05-13T13:40:27;24.88;;;5.95;;
73452;SDS011;61687;56.232;43.854;2023-05-13T13:42:53;19.07;;;5.20;;
73452;SDS011;61687;56.232;43.854;2023-05-13T13:45:19;24.23;;;5.28;;
73452;SDS011;61687;56.232;43.854;2023-05-13T13:47:48;15.80;;;5.38;;
73452;SDS011;61687;56.232;43.854;2023-05-13T13:50:15;17.38;;;5.43;;
73452;SDS011;61687;56.232;43.854;2023-05-13T13:52:41;17.80;;;6.00;;
73452;SDS011;61687;56.232;43.854;2023-05-13T13:55:07;16.15;;;5.90;;
73452;SDS011;61687;56.232;43.854;2023-05-13T13:57:33;14.05;;;5.50;;
73452;SDS011;61687;56.232;43.854;2023-05-13T13:59:59;9.93;;;6.28;;
73452;SDS011;61687;56.232;43.854;2023-05-13T14:02:25;15.63;;;5.97;;
73452;SDS011;61687;56.232;43.854;2023-05-13T14:04:51;14.07;;;6.07;;
73452;SDS011;61687;56.232;43.854;2023-05-13T14:07:18;13.82;;;5.60;;
73452;SDS011;61687;56.232;43.854;2023-05-13T14:09:44;16.80;;;5.63;;
73452;SDS011;61687;56.232;43.854;2023-05-13T14:12:10;11.03;;;4.97;;
73452;SDS011;61687;56.232;43.854;2023-05-13T14:14:36;13.82;;;5.90;;
73452;SDS011;61687;56.232;43.854;2023-05-13T14:17:01;12.20;;;5.75;;
73452;SDS011;61687;56.232;43.854;2023-05-13T14:19:27;12.93;;;5.93;;
73452;SDS011;61687;56.232;43.854;2023-05-13T14:21:53;17.17;;;5.80;;
73452;SDS011;61687;56.232;43.854;2023-05-13T14:24:19;14.70;;;4.55;;
73452;SDS011;61687;56.232;43.854;2023-05-13T14:26:45;10.85;;;4.97;;
73452;SDS011;61687;56.232;43.854;2023-05-13T14:29:11;12.33;;;6.13;;
73452;SDS011;61687;56.232;43.854;2023-05-13T14:31:37;14.45;;;6.18;;
73452;SDS011;61687;56.232;43.854;2023-05-13T14:34:03;14.52;;;6.30;;
73452;SDS011;61687;56.232;43.854;2023-05-13T14:36:31;12.87;;;5.40;;
73452;SDS011;61687;56.232;43.854;2023-05-13T14:38:57;11.23;;;5.50;;
73452;SDS011;61687;56.232;43.854;2023-05-13T14:41:23;19.90;;;5.88;;
73452;SDS011;61687;56.232;43.854;2023-05-13T14:43:49;8.95;;;5.13;;
73452;SDS011;61687;56.232;43.854;2023-05-13T14:46:16;12.32;;;5.70;;
73452;SDS011;61687;56.232;43.854;2023-05-13T14:48:42;9.63;;;5.23;;
73452;SDS011;61687;56.232;43.854;2023-05-13T14:51:08;9.43;;;5.25;;
73452;SDS011;61687;56.232;43.854;2023-05-13T14:53:40;9.07;;;5.20;;